KHAI/HAI METAR and TAF weather

Enter ICAO airport designator
Station Type Date Time Source
KHAI METAR 2019/06/19 00:39 UTC NOAA

KHAI 190039Z AUTO 33006G14KT 10SM CLR 25/18 A2987 RMK AO2 T02500179


Station Type Date Time Source
KHAI Decoded METAR 2019/06/19 00:39 UTC NOAA

Station name not available
Jun 18, 2019 - 08:39 PM EDT / 2019.06.19 0039 UTC
Wind: from the NNW (330 degrees) at 7 MPH (6 KT) gusting to 16 MPH (14 KT):0
Visibility: 10 mile(s):0
Sky conditions: clear
Temperature: 77.0 F (25.0 C)
Dew Point: 64.2 F (17.9 C)
Relative Humidity: 64%
Pressure (altimeter): 29.87 in. Hg (1011 hPa)
ob: KHAI 190039Z AUTO 33006G14KT 10SM CLR 25/18 A2987 RMK AO2 T02500179
cycle: 0

Station Type Date Time Source
KHAI TAF UTC NOAA

Error!

Example: see airport list